Cashiers, NC

7:32 AM EST on December 18, 2014 (GMT -0500)
Oconee County Regional | Change Station
CLOSE
Current Station
Airport
Location: Clemson,
Elevation: 892 ft
Nearby Weather Stations

Elev 892 ft 34.67 °N, 82.88 °W | Updated 38 minutes ago

Mostly Cloudy
Mostly Cloudy
39 °F
Feels Like 37 °F
N
4
Wind Variable Wind from ESE

Today
High -- | Low -- °F
--% Chance of Precip.
Yesterday
High -- | Low -- °F
Precip. -- in
7:35 AM 5:22 PM
Waning Crescent, 15% visible
Pressure 30.14 in
Visibility 9.0 miles
Clouds Clear
Windchill 37 °F
Dew Point 35 °F
Humidity 86%
Rainfall 0.00 in
Snow Depth Not available.
UV 0 out of 12
Pollen 1.60 out of 12
Air Quality Not available.
Flu Activity Not available.
METAR KCEU 181154Z AUTO 11003KT 9SM CLR 04/02 A3013 RMK AO2 SLP205 T00390017 10056 20033 53015

More Conditions Fewer Conditions

Pressure 30.14 in
Visibility 9.0 miles
Clouds Clear
Windchill 37 °F
Dew Point 35 °F
Humidity 86%
Rainfall 0.00 in
Snow Depth Not available.
UV 0 out of 12
Pollen 1.60 out of 12
Air Quality Not available.
Flu Activity Not available.
METAR KCEU 181154Z AUTO 11003KT 9SM CLR 04/02 A3013 RMK AO2 SLP205 T00390017 10056 20033 53015

More Conditions Fewer Conditions

10-Day Weather Forecast

Almanac

Astronomy

Dec. 18, 2014 Rise Set
Actual Time
Civil Twilight
Nautical Twilight
Astronomical Twilight
Moon
Length of Visible Light
Length of Day
Tomorrow will be .
, % of the Moon is Illuminated

Today's Extremes

State Highs State Lows

Community

WunderPhotos

Upload Photos

1,778,923 photos uploaded!

WunderBlogs® & News

Nearby

Air Quality

  Air Quality AQ Index Pollutant
Not available.

Snow Depth

Station Depth Elevation

Earthquake Activity

City Distance Mag. Time & Date
Minimum magnitude displayed is 2.5.

Coastal Water Temperatures

Place Temperature

Nearby Weather Stations